sensor_id;sensor_type;location;lat;lon;timestamp;temperature;humidity
31129;DHT22;17777;48.770;8.944;2023-07-24T00:00:16;25.60;41.00
31129;DHT22;17777;48.770;8.944;2023-07-24T00:02:42;25.60;41.20
31129;DHT22;17777;48.770;8.944;2023-07-24T00:05:08;25.50;41.30
31129;DHT22;17777;48.770;8.944;2023-07-24T00:07:35;25.50;41.30
31129;DHT22;17777;48.770;8.944;2023-07-24T00:10:02;25.40;41.50
31129;DHT22;17777;48.770;8.944;2023-07-24T00:12:28;25.40;41.80
31129;DHT22;17777;48.770;8.944;2023-07-24T00:14:54;25.30;41.90
31129;DHT22;17777;48.770;8.944;2023-07-24T00:17:19;25.30;42.10
31129;DHT22;17777;48.770;8.944;2023-07-24T00:19:45;25.30;42.40
31129;DHT22;17777;48.770;8.944;2023-07-24T00:22:11;25.20;42.60
31129;DHT22;17777;48.770;8.944;2023-07-24T00:24:37;25.30;42.70
31129;DHT22;17777;48.770;8.944;2023-07-24T00:27:03;25.20;42.70
31129;DHT22;17777;48.770;8.944;2023-07-24T00:29:29;25.20;42.80
31129;DHT22;17777;48.770;8.944;2023-07-24T00:31:54;25.20;43.10
31129;DHT22;17777;48.770;8.944;2023-07-24T00:34:20;25.20;43.20
31129;DHT22;17777;48.770;8.944;2023-07-24T00:36:46;25.10;43.30
31129;DHT22;17777;48.770;8.944;2023-07-24T00:39:14;25.10;43.30
31129;DHT22;17777;48.770;8.944;2023-07-24T00:41:40;25.10;43.70
31129;DHT22;17777;48.770;8.944;2023-07-24T00:44:06;25.00;43.50
31129;DHT22;17777;48.770;8.944;2023-07-24T00:46:33;25.10;43.70
31129;DHT22;17777;48.770;8.944;2023-07-24T00:49:02;25.00;43.90
31129;DHT22;17777;48.770;8.944;2023-07-24T00:51:31;25.00;43.90
31129;DHT22;17777;48.770;8.944;2023-07-24T00:54:00;25.00;44.00
31129;DHT22;17777;48.770;8.944;2023-07-24T00:56:29;25.00;44.50
31129;DHT22;17777;48.770;8.944;2023-07-24T00:58:56;24.90;44.20
31129;DHT22;17777;48.770;8.944;2023-07-24T01:01:22;24.90;44.20
31129;DHT22;17777;48.770;8.944;2023-07-24T01:03:49;24.90;44.30
31129;DHT22;17777;48.770;8.944;2023-07-24T01:06:16;24.80;44.40
31129;DHT22;17777;48.770;8.944;2023-07-24T01:08:42;24.80;44.50
31129;DHT22;17777;48.770;8.944;2023-07-24T01:11:38;24.70;44.50
31129;DHT22;17777;48.770;8.944;2023-07-24T01:14:31;24.70;45.80
31129;DHT22;17777;48.770;8.944;2023-07-24T01:17:01;24.60;45.70
31129;DHT22;17777;48.770;8.944;2023-07-24T01:19:46;24.70;44.80
31129;DHT22;17777;48.770;8.944;2023-07-24T01:22:38;24.60;45.70
31129;DHT22;17777;48.770;8.944;2023-07-24T01:27:46;24.60;45.10
31129;DHT22;17777;48.770;8.944;2023-07-24T01:30:17;24.50;44.70
31129;DHT22;17777;48.770;8.944;2023-07-24T01:32:43;24.50;45.70
31129;DHT22;17777;48.770;8.944;2023-07-24T01:35:09;24.50;45.00
31129;DHT22;17777;48.770;8.944;2023-07-24T01:37:36;24.50;45.10
31129;DHT22;17777;48.770;8.944;2023-07-24T01:40:06;24.40;45.20
31129;DHT22;17777;48.770;8.944;2023-07-24T01:42:34;24.40;45.30
31129;DHT22;17777;48.770;8.944;2023-07-24T01:45:02;24.40;45.30
31129;DHT22;17777;48.770;8.944;2023-07-24T01:47:29;24.40;45.50
31129;DHT22;17777;48.770;8.944;2023-07-24T01:49:55;24.40;45.40
31129;DHT22;17777;48.770;8.944;2023-07-24T01:52:22;24.30;45.40
31129;DHT22;17777;48.770;8.944;2023-07-24T01:54:47;24.30;45.50
31129;DHT22;17777;48.770;8.944;2023-07-24T01:57:13;24.30;45.70
31129;DHT22;17777;48.770;8.944;2023-07-24T01:59:39;24.30;45.70
31129;DHT22;17777;48.770;8.944;2023-07-24T02:02:05;24.20;45.60
31129;DHT22;17777;48.770;8.944;2023-07-24T02:04:31;24.20;45.80
31129;DHT22;17777;48.770;8.944;2023-07-24T02:06:56;24.20;45.90
31129;DHT22;17777;48.770;8.944;2023-07-24T02:09:22;24.10;45.90
31129;DHT22;17777;48.770;8.944;2023-07-24T02:11:48;24.10;46.00
31129;DHT22;17777;48.770;8.944;2023-07-24T02:14:17;24.10;46.00
31129;DHT22;17777;48.770;8.944;2023-07-24T02:16:43;24.10;46.20
31129;DHT22;17777;48.770;8.944;2023-07-24T02:19:09;24.10;46.20
31129;DHT22;17777;48.770;8.944;2023-07-24T02:21:35;24.10;46.20
31129;DHT22;17777;48.770;8.944;2023-07-24T02:24:00;24.10;46.20
31129;DHT22;17777;48.770;8.944;2023-07-24T02:26:26;24.10;46.30
31129;DHT22;17777;48.770;8.944;2023-07-24T02:28:54;24.10;46.30
31129;DHT22;17777;48.770;8.944;2023-07-24T02:31:20;24.10;46.50
31129;DHT22;17777;48.770;8.944;2023-07-24T02:33:46;24.10;47.10
31129;DHT22;17777;48.770;8.944;2023-07-24T02:36:12;24.10;46.40
31129;DHT22;17777;48.770;8.944;2023-07-24T02:38:40;24.10;46.50
31129;DHT22;17777;48.770;8.944;2023-07-24T02:41:06;24.10;46.50
31129;DHT22;17777;48.770;8.944;2023-07-24T02:43:32;24.10;46.50
31129;DHT22;17777;48.770;8.944;2023-07-24T02:46:01;24.10;46.50
31129;DHT22;17777;48.770;8.944;2023-07-24T02:48:28;24.10;46.60
31129;DHT22;17777;48.770;8.944;2023-07-24T02:50:54;24.10;46.60
31129;DHT22;17777;48.770;8.944;2023-07-24T02:53:20;24.10;46.60
31129;DHT22;17777;48.770;8.944;2023-07-24T02:55:45;24.10;46.60
31129;DHT22;17777;48.770;8.944;2023-07-24T02:58:12;24.10;46.60
31129;DHT22;17777;48.770;8.944;2023-07-24T03:00:39;24.00;46.60
31129;DHT22;17777;48.770;8.944;2023-07-24T03:03:04;24.00;46.50
31129;DHT22;17777;48.770;8.944;2023-07-24T03:05:31;24.00;46.60
31129;DHT22;17777;48.770;8.944;2023-07-24T03:07:57;24.00;46.60
31129;DHT22;17777;48.770;8.944;2023-07-24T03:10:23;24.00;46.60
31129;DHT22;17777;48.770;8.944;2023-07-24T03:12:49;23.90;46.60
31129;DHT22;17777;48.770;8.944;2023-07-24T03:15:15;23.90;46.70
31129;DHT22;17777;48.770;8.944;2023-07-24T03:17:40;23.90;46.80
31129;DHT22;17777;48.770;8.944;2023-07-24T03:20:14;23.80;46.80
31129;DHT22;17777;48.770;8.944;2023-07-24T03:22:42;23.80;47.20
31129;DHT22;17777;48.770;8.944;2023-07-24T03:25:08;23.80;46.90
31129;DHT22;17777;48.770;8.944;2023-07-24T03:27:34;23.80;47.00
31129;DHT22;17777;48.770;8.944;2023-07-24T03:30:00;23.80;47.10
31129;DHT22;17777;48.770;8.944;2023-07-24T03:32:26;23.70;47.10
31129;DHT22;17777;48.770;8.944;2023-07-24T03:34:52;23.70;47.20
31129;DHT22;17777;48.770;8.944;2023-07-24T03:37:19;23.70;47.20
31129;DHT22;17777;48.770;8.944;2023-07-24T03:39:45;23.70;47.20
31129;DHT22;17777;48.770;8.944;2023-07-24T03:42:11;23.60;47.20
31129;DHT22;17777;48.770;8.944;2023-07-24T03:44:40;23.70;47.30
31129;DHT22;17777;48.770;8.944;2023-07-24T03:47:07;23.60;47.30
31129;DHT22;17777;48.770;8.944;2023-07-24T03:49:33;23.60;47.30
31129;DHT22;17777;48.770;8.944;2023-07-24T03:51:59;23.60;47.30
31129;DHT22;17777;48.770;8.944;2023-07-24T03:54:25;23.50;47.40
31129;DHT22;17777;48.770;8.944;2023-07-24T03:56:50;23.50;47.50
31129;DHT22;17777;48.770;8.944;2023-07-24T03:59:16;23.50;47.60
31129;DHT22;17777;48.770;8.944;2023-07-24T04:01:42;23.50;47.50
31129;DHT22;17777;48.770;8.944;2023-07-24T04:04:08;23.50;47.60
31129;DHT22;17777;48.770;8.944;2023-07-24T04:06:34;23.50;47.60
31129;DHT22;17777;48.770;8.944;2023-07-24T04:08:59;23.50;47.60
31129;DHT22;17777;48.770;8.944;2023-07-24T04:11:25;23.50;47.60
31129;DHT22;17777;48.770;8.944;2023-07-24T04:13:51;23.50;47.70
31129;DHT22;17777;48.770;8.944;2023-07-24T04:16:17;23.50;47.80
31129;DHT22;17777;48.770;8.944;2023-07-24T04:18:42;23.50;47.80
31129;DHT22;17777;48.770;8.944;2023-07-24T04:21:08;23.50;47.80
31129;DHT22;17777;48.770;8.944;2023-07-24T04:23:34;23.50;47.80
31129;DHT22;17777;48.770;8.944;2023-07-24T04:26:00;23.50;47.80
31129;DHT22;17777;48.770;8.944;2023-07-24T04:28:25;23.50;47.80
31129;DHT22;17777;48.770;8.944;2023-07-24T04:30:51;23.50;47.70
31129;DHT22;17777;48.770;8.944;2023-07-24T04:33:17;23.50;47.80
31129;DHT22;17777;48.770;8.944;2023-07-24T04:35:42;23.50;47.90
31129;DHT22;17777;48.770;8.944;2023-07-24T04:38:08;23.40;48.00
31129;DHT22;17777;48.770;8.944;2023-07-24T04:40:34;23.40;48.10
31129;DHT22;17777;48.770;8.944;2023-07-24T04:43:00;23.50;48.10
31129;DHT22;17777;48.770;8.944;2023-07-24T04:45:26;23.50;48.10
31129;DHT22;17777;48.770;8.944;2023-07-24T04:47:52;23.50;48.10
31129;DHT22;17777;48.770;8.944;2023-07-24T04:50:18;23.50;48.10
31129;DHT22;17777;48.770;8.944;2023-07-24T04:52:44;23.50;48.30
31129;DHT22;17777;48.770;8.944;2023-07-24T04:55:09;23.50;48.30
31129;DHT22;17777;48.770;8.944;2023-07-24T04:57:35;23.40;48.30
31129;DHT22;17777;48.770;8.944;2023-07-24T05:00:01;23.50;48.40
31129;DHT22;17777;48.770;8.944;2023-07-24T05:02:27;23.40;48.40
31129;DHT22;17777;48.770;8.944;2023-07-24T05:04:52;23.40;48.50
31129;DHT22;17777;48.770;8.944;2023-07-24T05:07:18;23.40;48.50
31129;DHT22;17777;48.770;8.944;2023-07-24T05:09:44;23.40;48.50
31129;DHT22;17777;48.770;8.944;2023-07-24T05:12:09;23.40;48.60
31129;DHT22;17777;48.770;8.944;2023-07-24T05:14:35;23.40;48.70
31129;DHT22;17777;48.770;8.944;2023-07-24T05:17:01;23.40;48.80
31129;DHT22;17777;48.770;8.944;2023-07-24T05:19:27;23.30;48.80
31129;DHT22;17777;48.770;8.944;2023-07-24T05:21:52;23.30;49.00
31129;DHT22;17777;48.770;8.944;2023-07-24T05:24:18;23.30;49.00
31129;DHT22;17777;48.770;8.944;2023-07-24T05:26:44;23.30;49.10
31129;DHT22;17777;48.770;8.944;2023-07-24T05:29:10;23.30;49.20
31129;DHT22;17777;48.770;8.944;2023-07-24T05:31:35;23.30;49.30
31129;DHT22;17777;48.770;8.944;2023-07-24T05:34:01;23.30;49.40
31129;DHT22;17777;48.770;8.944;2023-07-24T05:36:29;23.30;49.50
31129;DHT22;17777;48.770;8.944;2023-07-24T05:38:55;23.40;49.60
31129;DHT22;17777;48.770;8.944;2023-07-24T05:41:21;23.40;49.60
31129;DHT22;17777;48.770;8.944;2023-07-24T05:43:47;23.40;49.60
31129;DHT22;17777;48.770;8.944;2023-07-24T05:46:13;23.40;49.70
31129;DHT22;17777;48.770;8.944;2023-07-24T05:48:39;23.40;49.70
31129;DHT22;17777;48.770;8.944;2023-07-24T05:51:04;23.40;49.70
31129;DHT22;17777;48.770;8.944;2023-07-24T05:53:30;23.50;49.70
31129;DHT22;17777;48.770;8.944;2023-07-24T05:55:59;23.50;49.70
31129;DHT22;17777;48.770;8.944;2023-07-24T05:58:26;23.50;50.10
31129;DHT22;17777;48.770;8.944;2023-07-24T06:00:52;23.50;49.70
31129;DHT22;17777;48.770;8.944;2023-07-24T06:03:18;23.50;49.60
31129;DHT22;17777;48.770;8.944;2023-07-24T06:05:44;23.50;49.50
31129;DHT22;17777;48.770;8.944;2023-07-24T06:08:10;23.50;49.30
31129;DHT22;17777;48.770;8.944;2023-07-24T06:10:37;23.60;49.30
31129;DHT22;17777;48.770;8.944;2023-07-24T06:13:02;23.60;49.30
31129;DHT22;17777;48.770;8.944;2023-07-24T06:15:28;23.50;49.20
31129;DHT22;17777;48.770;8.944;2023-07-24T06:17:54;23.60;49.20
31129;DHT22;17777;48.770;8.944;2023-07-24T06:20:20;23.60;49.20
31129;DHT22;17777;48.770;8.944;2023-07-24T06:22:45;23.60;49.20
31129;DHT22;17777;48.770;8.944;2023-07-24T06:25:11;23.60;49.20
31129;DHT22;17777;48.770;8.944;2023-07-24T06:27:37;23.60;49.20
31129;DHT22;17777;48.770;8.944;2023-07-24T06:30:03;23.60;49.30
31129;DHT22;17777;48.770;8.944;2023-07-24T06:32:29;23.70;49.40
31129;DHT22;17777;48.770;8.944;2023-07-24T06:34:55;23.70;49.50
31129;DHT22;17777;48.770;8.944;2023-07-24T06:37:21;23.70;49.40
31129;DHT22;17777;48.770;8.944;2023-07-24T06:39:47;23.80;49.50
31129;DHT22;17777;48.770;8.944;2023-07-24T06:42:12;23.80;49.50
31129;DHT22;17777;48.770;8.944;2023-07-24T06:44:38;23.80;49.50
31129;DHT22;17777;48.770;8.944;2023-07-24T06:47:04;23.80;49.50
31129;DHT22;17777;48.770;8.944;2023-07-24T06:49:30;23.90;49.60
31129;DHT22;17777;48.770;8.944;2023-07-24T06:51:55;23.90;49.50
31129;DHT22;17777;48.770;8.944;2023-07-24T06:54:21;23.90;49.40
31129;DHT22;17777;48.770;8.944;2023-07-24T06:56:47;24.00;49.50
31129;DHT22;17777;48.770;8.944;2023-07-24T06:59:13;24.00;49.40
31129;DHT22;17777;48.770;8.944;2023-07-24T07:01:38;24.10;49.30
31129;DHT22;17777;48.770;8.944;2023-07-24T07:04:04;24.10;49.30
31129;DHT22;17777;48.770;8.944;2023-07-24T07:06:30;24.10;49.30
31129;DHT22;17777;48.770;8.944;2023-07-24T07:08:55;24.20;49.40
31129;DHT22;17777;48.770;8.944;2023-07-24T07:11:21;24.20;49.30
31129;DHT22;17777;48.770;8.944;2023-07-24T07:13:47;24.20;49.20
31129;DHT22;17777;48.770;8.944;2023-07-24T07:16:13;24.30;49.20
31129;DHT22;17777;48.770;8.944;2023-07-24T07:18:38;24.30;49.20
31129;DHT22;17777;48.770;8.944;2023-07-24T07:21:04;24.40;49.20
31129;DHT22;17777;48.770;8.944;2023-07-24T07:23:30;24.40;49.20
31129;DHT22;17777;48.770;8.944;2023-07-24T07:25:56;24.50;49.20
31129;DHT22;17777;48.770;8.944;2023-07-24T07:28:21;24.40;49.10
31129;DHT22;17777;48.770;8.944;2023-07-24T07:30:47;24.50;49.20
31129;DHT22;17777;48.770;8.944;2023-07-24T07:33:13;24.50;49.20
31129;DHT22;17777;48.770;8.944;2023-07-24T07:35:39;24.50;49.20
31129;DHT22;17777;48.770;8.944;2023-07-24T07:38:04;24.60;49.30
31129;DHT22;17777;48.770;8.944;2023-07-24T07:40:30;24.60;49.30
31129;DHT22;17777;48.770;8.944;2023-07-24T07:42:56;24.60;49.40
31129;DHT22;17777;48.770;8.944;2023-07-24T07:45:23;24.60;49.30
31129;DHT22;17777;48.770;8.944;2023-07-24T07:47:49;24.70;49.30
31129;DHT22;17777;48.770;8.944;2023-07-24T07:50:15;24.70;49.30
31129;DHT22;17777;48.770;8.944;2023-07-24T07:52:41;24.70;49.40
31129;DHT22;17777;48.770;8.944;2023-07-24T07:55:07;24.70;49.40
31129;DHT22;17777;48.770;8.944;2023-07-24T07:57:37;24.70;49.40
31129;DHT22;17777;48.770;8.944;2023-07-24T08:00:04;24.80;49.60
31129;DHT22;17777;48.770;8.944;2023-07-24T08:02:33;24.80;49.20
31129;DHT22;17777;48.770;8.944;2023-07-24T08:05:00;24.80;49.20
31129;DHT22;17777;48.770;8.944;2023-07-24T08:07:25;24.80;49.20
31129;DHT22;17777;48.770;8.944;2023-07-24T08:09:51;24.80;49.20
31129;DHT22;17777;48.770;8.944;2023-07-24T08:12:17;24.80;49.20
31129;DHT22;17777;48.770;8.944;2023-07-24T08:14:43;24.80;49.30
31129;DHT22;17777;48.770;8.944;2023-07-24T08:17:09;24.90;49.50
31129;DHT22;17777;48.770;8.944;2023-07-24T08:19:34;24.90;49.60
31129;DHT22;17777;48.770;8.944;2023-07-24T08:22:00;24.90;49.70
31129;DHT22;17777;48.770;8.944;2023-07-24T08:24:26;24.90;49.90
31129;DHT22;17777;48.770;8.944;2023-07-24T08:26:52;24.90;50.00
31129;DHT22;17777;48.770;8.944;2023-07-24T08:29:17;24.90;50.00
31129;DHT22;17777;48.770;8.944;2023-07-24T08:31:43;24.90;50.30
31129;DHT22;17777;48.770;8.944;2023-07-24T08:34:09;24.90;50.50
31129;DHT22;17777;48.770;8.944;2023-07-24T08:36:35;24.90;50.60
31129;DHT22;17777;48.770;8.944;2023-07-24T08:39:03;24.90;50.80
31129;DHT22;17777;48.770;8.944;2023-07-24T08:41:29;24.90;50.80
31129;DHT22;17777;48.770;8.944;2023-07-24T08:43:57;24.90;50.90
31129;DHT22;17777;48.770;8.944;2023-07-24T08:46:22;25.00;51.00
31129;DHT22;17777;48.770;8.944;2023-07-24T08:48:49;24.90;51.10
31129;DHT22;17777;48.770;8.944;2023-07-24T08:51:15;25.00;51.20
31129;DHT22;17777;48.770;8.944;2023-07-24T08:53:50;25.00;51.40
31129;DHT22;17777;48.770;8.944;2023-07-24T08:56:16;25.00;51.40
31129;DHT22;17777;48.770;8.944;2023-07-24T08:58:41;25.00;51.40
31129;DHT22;17777;48.770;8.944;2023-07-24T09:01:08;25.00;51.40
31129;DHT22;17777;48.770;8.944;2023-07-24T09:03:34;25.00;51.50
31129;DHT22;17777;48.770;8.944;2023-07-24T09:06:01;25.10;51.60
31129;DHT22;17777;48.770;8.944;2023-07-24T09:08:33;25.10;51.60
31129;DHT22;17777;48.770;8.944;2023-07-24T09:11:04;25.10;51.90
31129;DHT22;17777;48.770;8.944;2023-07-24T09:13:31;25.20;51.70
31129;DHT22;17777;48.770;8.944;2023-07-24T09:15:57;25.20;51.60
31129;DHT22;17777;48.770;8.944;2023-07-24T09:18:24;25.20;51.60
31129;DHT22;17777;48.770;8.944;2023-07-24T09:20:50;25.20;51.70
31129;DHT22;17777;48.770;8.944;2023-07-24T09:23:26;25.30;51.80
31129;DHT22;17777;48.770;8.944;2023-07-24T09:25:53;25.30;52.40
31129;DHT22;17777;48.770;8.944;2023-07-24T09:28:19;25.40;51.90
31129;DHT22;17777;48.770;8.944;2023-07-24T09:30:54;25.40;52.00
31129;DHT22;17777;48.770;8.944;2023-07-24T09:33:35;25.50;52.40
31129;DHT22;17777;48.770;8.944;2023-07-24T09:36:06;25.50;52.40
31129;DHT22;17777;48.770;8.944;2023-07-24T09:38:34;25.50;51.80
31129;DHT22;17777;48.770;8.944;2023-07-24T09:41:02;25.60;51.90
31129;DHT22;17777;48.770;8.944;2023-07-24T09:43:32;25.60;51.90
31129;DHT22;17777;48.770;8.944;2023-07-24T09:45:58;25.70;51.90
31129;DHT22;17777;48.770;8.944;2023-07-24T09:48:27;25.70;51.90
31129;DHT22;17777;48.770;8.944;2023-07-24T09:50:54;25.70;52.20
31129;DHT22;17777;48.770;8.944;2023-07-24T09:56:03;25.80;52.40
31129;DHT22;17777;48.770;8.944;2023-07-24T09:58:33;25.80;51.40
31129;DHT22;17777;48.770;8.944;2023-07-24T10:01:04;25.80;51.90
31129;DHT22;17777;48.770;8.944;2023-07-24T10:03:40;25.80;52.00
31129;DHT22;17777;48.770;8.944;2023-07-24T10:06:11;25.90;52.00
31129;DHT22;17777;48.770;8.944;2023-07-24T10:08:40;25.90;51.80
31129;DHT22;17777;48.770;8.944;2023-07-24T10:11:11;25.90;51.80
31129;DHT22;17777;48.770;8.944;2023-07-24T10:13:38;25.90;51.70
31129;DHT22;17777;48.770;8.944;2023-07-24T10:16:04;25.90;51.50
31129;DHT22;17777;48.770;8.944;2023-07-24T10:18:34;25.90;51.50
31129;DHT22;17777;48.770;8.944;2023-07-24T10:21:08;25.90;51.60
31129;DHT22;17777;48.770;8.944;2023-07-24T10:23:36;25.90;52.00
31129;DHT22;17777;48.770;8.944;2023-07-24T10:26:05;25.90;51.60
31129;DHT22;17777;48.770;8.944;2023-07-24T10:28:37;25.90;51.60
31129;DHT22;17777;48.770;8.944;2023-07-24T10:31:18;25.90;51.70
31129;DHT22;17777;48.770;8.944;2023-07-24T10:33:45;25.90;51.80
31129;DHT22;17777;48.770;8.944;2023-07-24T10:36:12;25.80;51.70
31129;DHT22;17777;48.770;8.944;2023-07-24T10:38:43;25.90;51.90
31129;DHT22;17777;48.770;8.944;2023-07-24T10:41:10;25.80;52.10
31129;DHT22;17777;48.770;8.944;2023-07-24T10:43:50;25.80;52.00
31129;DHT22;17777;48.770;8.944;2023-07-24T10:46:19;25.80;52.70
31129;DHT22;17777;48.770;8.944;2023-07-24T10:48:50;25.80;52.20
31129;DHT22;17777;48.770;8.944;2023-07-24T10:51:17;25.80;52.30
31129;DHT22;17777;48.770;8.944;2023-07-24T10:53:48;25.80;52.20
31129;DHT22;17777;48.770;8.944;2023-07-24T10:56:16;25.80;52.60
31129;DHT22;17777;48.770;8.944;2023-07-24T10:58:42;25.70;52.40
31129;DHT22;17777;48.770;8.944;2023-07-24T11:01:09;25.70;52.30
31129;DHT22;17777;48.770;8.944;2023-07-24T11:03:37;25.70;52.40
31129;DHT22;17777;48.770;8.944;2023-07-24T11:06:05;25.70;52.40
31129;DHT22;17777;48.770;8.944;2023-07-24T11:08:30;25.60;52.40
31129;DHT22;17777;48.770;8.944;2023-07-24T11:10:58;25.60;52.50
31129;DHT22;17777;48.770;8.944;2023-07-24T11:13:25;25.60;52.50
31129;DHT22;17777;48.770;8.944;2023-07-24T11:15:53;25.50;52.50
31129;DHT22;17777;48.770;8.944;2023-07-24T11:18:20;25.50;52.50
31129;DHT22;17777;48.770;8.944;2023-07-24T11:20:53;25.50;52.50
31129;DHT22;17777;48.770;8.944;2023-07-24T11:23:20;25.40;52.90
31129;DHT22;17777;48.770;8.944;2023-07-24T11:25:50;25.40;52.60
31129;DHT22;17777;48.770;8.944;2023-07-24T11:28:17;25.40;52.80
31129;DHT22;17777;48.770;8.944;2023-07-24T11:30:43;25.40;52.60
31129;DHT22;17777;48.770;8.944;2023-07-24T11:33:11;25.40;52.70
31129;DHT22;17777;48.770;8.944;2023-07-24T11:35:39;25.30;52.90
31129;DHT22;17777;48.770;8.944;2023-07-24T11:38:08;25.30;53.30
31129;DHT22;17777;48.770;8.944;2023-07-24T11:40:42;25.30;53.50
31129;DHT22;17777;48.770;8.944;2023-07-24T11:43:19;25.30;53.80
31129;DHT22;17777;48.770;8.944;2023-07-24T11:45:47;25.30;54.00
31129;DHT22;17777;48.770;8.944;2023-07-24T11:48:20;25.40;53.70
31129;DHT22;17777;48.770;8.944;2023-07-24T11:50:48;25.40;53.50
31129;DHT22;17777;48.770;8.944;2023-07-24T11:53:31;25.40;53.50
31129;DHT22;17777;48.770;8.944;2023-07-24T11:55:58;25.40;53.70
31129;DHT22;17777;48.770;8.944;2023-07-24T11:58:28;25.40;53.30
31129;DHT22;17777;48.770;8.944;2023-07-24T12:00:56;25.40;53.50
31129;DHT22;17777;48.770;8.944;2023-07-24T12:03:26;25.40;53.20
31129;DHT22;17777;48.770;8.944;2023-07-24T12:05:52;25.50;53.20
31129;DHT22;17777;48.770;8.944;2023-07-24T12:08:20;25.40;53.10
31129;DHT22;17777;48.770;8.944;2023-07-24T12:10:54;25.40;53.20
31129;DHT22;17777;48.770;8.944;2023-07-24T12:13:20;25.50;53.20
31129;DHT22;17777;48.770;8.944;2023-07-24T12:15:46;25.50;53.20
31129;DHT22;17777;48.770;8.944;2023-07-24T12:18:12;25.50;53.30
31129;DHT22;17777;48.770;8.944;2023-07-24T12:20:37;25.50;53.30
31129;DHT22;17777;48.770;8.944;2023-07-24T12:23:03;25.50;53.30
31129;DHT22;17777;48.770;8.944;2023-07-24T12:25:30;25.50;53.30
31129;DHT22;17777;48.770;8.944;2023-07-24T12:27:56;25.50;53.50
31129;DHT22;17777;48.770;8.944;2023-07-24T12:30:21;25.50;53.50
31129;DHT22;17777;48.770;8.944;2023-07-24T12:32:47;25.60;53.50
31129;DHT22;17777;48.770;8.944;2023-07-24T12:35:13;25.60;53.50
31129;DHT22;17777;48.770;8.944;2023-07-24T12:37:39;25.60;53.50
31129;DHT22;17777;48.770;8.944;2023-07-24T12:40:05;25.60;53.40
31129;DHT22;17777;48.770;8.944;2023-07-24T12:42:32;25.70;53.30
31129;DHT22;17777;48.770;8.944;2023-07-24T12:44:57;25.70;53.30
31129;DHT22;17777;48.770;8.944;2023-07-24T12:47:23;25.70;53.40
31129;DHT22;17777;48.770;8.944;2023-07-24T12:49:49;25.70;53.40
31129;DHT22;17777;48.770;8.944;2023-07-24T12:52:16;25.70;53.40
31129;DHT22;17777;48.770;8.944;2023-07-24T12:54:42;25.70;53.60
31129;DHT22;17777;48.770;8.944;2023-07-24T12:57:08;25.80;53.70
31129;DHT22;17777;48.770;8.944;2023-07-24T12:59:33;25.80;53.70
31129;DHT22;17777;48.770;8.944;2023-07-24T13:01:59;25.90;53.70
31129;DHT22;17777;48.770;8.944;2023-07-24T13:04:25;25.90;53.70
31129;DHT22;17777;48.770;8.944;2023-07-24T13:06:51;26.00;53.80
31129;DHT22;17777;48.770;8.944;2023-07-24T13:09:18;26.00;53.80
31129;DHT22;17777;48.770;8.944;2023-07-24T13:11:44;26.00;53.80
31129;DHT22;17777;48.770;8.944;2023-07-24T13:14:14;26.10;53.90
31129;DHT22;17777;48.770;8.944;2023-07-24T13:16:40;26.20;53.80
31129;DHT22;17777;48.770;8.944;2023-07-24T13:19:06;26.30;53.80
31129;DHT22;17777;48.770;8.944;2023-07-24T13:21:32;26.30;53.80
31129;DHT22;17777;48.770;8.944;2023-07-24T13:23:57;26.40;53.70
31129;DHT22;17777;48.770;8.944;2023-07-24T13:26:23;26.50;53.30
31129;DHT22;17777;48.770;8.944;2023-07-24T13:28:49;26.60;53.30
31129;DHT22;17777;48.770;8.944;2023-07-24T13:31:17;26.70;53.00
31129;DHT22;17777;48.770;8.944;2023-07-24T13:33:44;26.80;52.70
31129;DHT22;17777;48.770;8.944;2023-07-24T13:36:10;26.80;52.40
31129;DHT22;17777;48.770;8.944;2023-07-24T13:38:36;26.90;52.40
31129;DHT22;17777;48.770;8.944;2023-07-24T13:41:02;27.00;52.40
31129;DHT22;17777;48.770;8.944;2023-07-24T13:43:30;27.10;52.20
31129;DHT22;17777;48.770;8.944;2023-07-24T13:45:56;27.20;52.00
31129;DHT22;17777;48.770;8.944;2023-07-24T13:48:22;27.20;51.80
31129;DHT22;17777;48.770;8.944;2023-07-24T13:50:50;27.30;51.70
31129;DHT22;17777;48.770;8.944;2023-07-24T13:53:16;27.40;51.60
31129;DHT22;17777;48.770;8.944;2023-07-24T13:55:41;27.60;51.50
31129;DHT22;17777;48.770;8.944;2023-07-24T13:58:07;27.60;51.30
31129;DHT22;17777;48.770;8.944;2023-07-24T14:00:33;27.70;51.00
31129;DHT22;17777;48.770;8.944;2023-07-24T14:02:59;27.90;51.00
31129;DHT22;17777;48.770;8.944;2023-07-24T14:05:24;28.00;51.40
31129;DHT22;17777;48.770;8.944;2023-07-24T14:07:50;28.00;50.30
31129;DHT22;17777;48.770;8.944;2023-07-24T14:10:16;28.10;50.30
31129;DHT22;17777;48.770;8.944;2023-07-24T14:12:42;28.20;50.00
31129;DHT22;17777;48.770;8.944;2023-07-24T14:15:08;28.30;49.80
31129;DHT22;17777;48.770;8.944;2023-07-24T14:17:34;28.40;49.60
31129;DHT22;17777;48.770;8.944;2023-07-24T14:20:03;28.50;49.40
31129;DHT22;17777;48.770;8.944;2023-07-24T14:22:30;28.60;49.30
31129;DHT22;17777;48.770;8.944;2023-07-24T14:24:56;28.60;49.00
31129;DHT22;17777;48.770;8.944;2023-07-24T14:27:22;28.70;48.90
31129;DHT22;17777;48.770;8.944;2023-07-24T14:29:47;28.80;48.80
31129;DHT22;17777;48.770;8.944;2023-07-24T14:32:13;28.80;48.70
31129;DHT22;17777;48.770;8.944;2023-07-24T14:34:41;28.90;48.50
31129;DHT22;17777;48.770;8.944;2023-07-24T14:37:07;28.90;48.10
31129;DHT22;17777;48.770;8.944;2023-07-24T14:39:34;28.90;47.80
31129;DHT22;17777;48.770;8.944;2023-07-24T14:41:59;29.00;47.70
31129;DHT22;17777;48.770;8.944;2023-07-24T14:44:25;29.00;47.50
31129;DHT22;17777;48.770;8.944;2023-07-24T14:46:51;29.00;47.40
31129;DHT22;17777;48.770;8.944;2023-07-24T14:49:17;29.00;47.30
31129;DHT22;17777;48.770;8.944;2023-07-24T14:51:43;29.00;47.20
31129;DHT22;17777;48.770;8.944;2023-07-24T14:54:09;29.00;47.00
31129;DHT22;17777;48.770;8.944;2023-07-24T14:56:35;29.00;46.90
31129;DHT22;17777;48.770;8.944;2023-07-24T14:59:00;29.10;46.80
31129;DHT22;17777;48.770;8.944;2023-07-24T15:01:26;29.00;46.70
31129;DHT22;17777;48.770;8.944;2023-07-24T15:03:55;29.10;46.60
31129;DHT22;17777;48.770;8.944;2023-07-24T15:06:22;29.10;46.50
31129;DHT22;17777;48.770;8.944;2023-07-24T15:08:48;29.10;46.30
31129;DHT22;17777;48.770;8.944;2023-07-24T15:11:19;29.10;46.20
31129;DHT22;17777;48.770;8.944;2023-07-24T15:13:45;29.10;46.10
31129;DHT22;17777;48.770;8.944;2023-07-24T15:16:11;29.10;46.10
31129;DHT22;17777;48.770;8.944;2023-07-24T15:18:37;29.10;46.00
31129;DHT22;17777;48.770;8.944;2023-07-24T15:21:02;29.10;45.90
31129;DHT22;17777;48.770;8.944;2023-07-24T15:23:29;29.10;45.80
31129;DHT22;17777;48.770;8.944;2023-07-24T15:25:55;29.10;45.60
31129;DHT22;17777;48.770;8.944;2023-07-24T15:28:21;29.00;45.20
31129;DHT22;17777;48.770;8.944;2023-07-24T15:30:48;29.00;45.20
31129;DHT22;17777;48.770;8.944;2023-07-24T15:33:14;28.90;45.20